Time;durP1;ratioP1;P1;durP2;ratioP2;P2;SDS_P1;SDS_P2;PMS_P1;PMS_P2;Temp;Humidity;BMP_temperature;BMP_pressure;BME280_temperature;BME280_humidity;BME280_pressure;Samples;Min_cycle;Max_cycle;Signal;HPM_P1;HPM_P2
2022/01/26 00:06:36;;;;;;;33.28;16.60;;;3.80;99.90;;;;;;6248103;23;20135;-88
2022/01/26 00:09:03;;;;;;;28.08;16.27;;;3.80;99.90;;;;;;6221023;23;20193;-88
2022/01/26 00:11:32;;;;;;;26.13;15.13;;;3.80;99.90;;;;;;6221020;23;20042;-87
2022/01/26 00:14:00;;;;;;;30.50;17.52;;;3.80;99.90;;;;;;6221011;23;20340;-87
2022/01/26 00:16:28;;;;;;;26.40;15.20;;;3.80;99.90;;;;;;6220988;23;20004;-87
2022/01/26 00:18:58;;;;;;;28.33;16.20;;;3.80;99.90;;;;;;6247863;23;19996;-87
2022/01/26 00:26:35;;;;;;;29.08;16.00;;;3.80;99.90;;;;;;6248160;23;20382;-87
2022/01/26 00:29:16;;;;;;;28.55;15.93;;;3.80;99.90;;;;;;6221019;23;20337;-88
2022/01/26 00:40:18;;;;;;;26.83;15.45;;;3.80;99.90;;;;;;6247791;23;20011;-88
2022/01/26 00:42:46;;;;;;;25.88;15.35;;;3.70;99.90;;;;;;6220849;23;19996;-88
2022/01/26 00:45:12;;;;;;;27.83;15.82;;;3.80;99.90;;;;;;6220788;23;20417;-88
2022/01/26 00:47:37;;;;;;;25.55;14.35;;;3.80;99.90;;;;;;6215642;23;20092;-87
2022/01/26 00:50:07;;;;;;;25.05;14.95;;;3.80;99.90;;;;;;6215781;23;20039;-87
2022/01/26 00:52:42;;;;;;;26.95;15.25;;;3.80;99.90;;;;;;6215760;23;20011;-88
2022/01/26 00:55:11;;;;;;;29.50;15.55;;;3.70;99.90;;;;;;6215867;23;20095;-88
2022/01/26 00:57:37;;;;;;;26.00;15.82;;;3.70;99.90;;;;;;6215612;23;20349;-88
2022/01/26 01:00:10;;;;;;;28.13;15.00;;;3.70;99.90;;;;;;6215574;23;20000;-88
2022/01/26 01:02:36;;;;;;;28.55;15.70;;;3.70;99.90;;;;;;6215708;23;20001;-88
2022/01/26 01:05:10;;;;;;;27.92;15.60;;;3.70;99.90;;;;;;6217444;23;20016;-88
2022/01/26 01:07:38;;;;;;;26.85;15.25;;;3.70;99.90;;;;;;6215692;23;20004;-88
2022/01/26 01:10:05;;;;;;;26.95;15.10;;;3.70;99.90;;;;;;6217208;23;20008;-87
2022/01/26 01:12:32;;;;;;;26.13;15.30;;;3.70;99.90;;;;;;6215033;23;20005;-88
2022/01/26 01:14:58;;;;;;;28.92;16.77;;;3.70;99.90;;;;;;6216508;23;20005;-88
2022/01/26 01:17:31;;;;;;;28.23;15.88;;;3.70;99.90;;;;;;6215275;23;20008;-88
2022/01/26 01:20:25;;;;;;;28.47;15.73;;;3.70;99.90;;;;;;6217010;23;20043;-87
2022/01/26 01:30:56;;;;;;;27.13;15.55;;;3.70;99.90;;;;;;6227142;23;20381;-88
2022/01/26 01:33:29;;;;;;;24.35;15.10;;;3.70;99.90;;;;;;6215634;23;20044;-89
2022/01/26 01:35:57;;;;;;;26.08;14.73;;;3.60;99.90;;;;;;6215379;23;20008;-89
2022/01/26 01:38:26;;;;;;;23.30;14.23;;;3.60;99.90;;;;;;6215439;23;20005;-89
2022/01/26 01:40:52;;;;;;;28.73;14.82;;;3.70;99.90;;;;;;6215427;23;20436;-88
2022/01/26 01:43:20;;;;;;;23.20;14.50;;;3.60;99.90;;;;;;6215358;23;20001;-88
2022/01/26 01:45:49;;;;;;;24.50;14.55;;;3.60;99.90;;;;;;6215414;23;20092;-88
2022/01/26 01:48:20;;;;;;;24.63;14.00;;;3.60;99.90;;;;;;6215084;23;20020;-89
2022/01/26 01:50:47;;;;;;;22.90;14.30;;;3.60;99.90;;;;;;6215454;23;20004;-88
2022/01/26 01:53:16;;;;;;;23.00;13.93;;;3.60;99.90;;;;;;6215307;23;20048;-88
2022/01/26 01:55:47;;;;;;;21.85;14.23;;;3.60;99.90;;;;;;6215540;23;20000;-88
2022/01/26 01:58:13;;;;;;;22.88;14.18;;;3.60;99.90;;;;;;6215353;23;20004;-89
2022/01/26 02:00:39;;;;;;;23.48;14.43;;;3.60;99.90;;;;;;6215286;23;20007;-89
2022/01/26 02:03:05;;;;;;;23.83;14.00;;;3.60;99.90;;;;;;6215266;23;20004;-88
2022/01/26 02:05:31;;;;;;;20.75;12.98;;;3.60;99.90;;;;;;6217102;23;20111;-89
2022/01/26 02:07:58;;;;;;;21.77;13.38;;;3.60;99.90;;;;;;6216689;23;20008;-89
2022/01/26 02:10:24;;;;;;;24.15;13.60;;;3.60;99.90;;;;;;6215200;23;20041;-88
2022/01/26 02:13:02;;;;;;;21.77;13.48;;;3.60;99.90;;;;;;6216663;23;20004;-89
2022/01/26 02:15:45;;;;;;;20.45;13.18;;;3.60;99.90;;;;;;6215270;23;20054;-88
2022/01/26 02:18:37;;;;;;;20.92;12.60;;;3.60;99.90;;;;;;6215098;23;20008;-88
2022/01/26 02:21:31;;;;;;;20.17;13.23;;;3.60;99.90;;;;;;6216707;23;20055;-88
2022/01/26 02:59:33;;;;;;;17.48;11.10;;;3.60;99.90;;;;;;6256790;23;20038;-89
2022/01/26 03:07:39;;;;;;;16.10;10.98;;;3.60;99.90;;;;;;6249217;23;20040;-89
2022/01/26 03:09:43;;;;;;;17.90;10.93;;;3.50;99.90;;;;;;6230783;23;20004;-89
2022/01/26 03:12:11;;;;;;;15.82;11.18;;;3.50;99.90;;;;;;6219735;23;20075;-89
2022/01/26 03:14:51;;;;;;;15.65;11.18;;;3.50;99.90;;;;;;6220099;23;20031;-89
2022/01/26 03:19:52;;;;;;;16.52;10.93;;;3.50;99.90;;;;;;6257244;23;20079;-88
2022/01/26 03:30:34;;;;;;;15.55;10.00;;;3.50;99.90;;;;;;6246453;23;20228;-89
2022/01/26 03:33:13;;;;;;;14.73;10.52;;;3.50;99.90;;;;;;6219575;23;20384;-89
2022/01/26 03:38:06;;;;;;;15.57;9.77;;;3.50;99.90;;;;;;6248986;23;20102;-89
2022/01/26 03:40:35;;;;;;;14.48;10.10;;;3.50;99.90;;;;;;6221694;23;20309;-89
2022/01/26 03:43:00;;;;;;;15.35;9.95;;;3.50;99.90;;;;;;6222473;23;20384;-89
2022/01/26 03:45:27;;;;;;;15.32;9.80;;;3.50;99.90;;;;;;6221801;23;20004;-88
2022/01/26 03:47:56;;;;;;;15.40;10.57;;;3.50;99.90;;;;;;6216544;23;20445;-89
2022/01/26 03:50:25;;;;;;;15.70;10.65;;;3.50;99.90;;;;;;6216749;23;20019;-89
2022/01/26 03:52:50;;;;;;;13.43;10.43;;;3.50;99.90;;;;;;6216613;23;20011;-89
2022/01/26 03:55:16;;;;;;;14.57;9.60;;;3.50;99.90;;;;;;6216425;23;20004;-89
2022/01/26 03:57:42;;;;;;;14.85;9.85;;;3.50;99.90;;;;;;6216444;23;20327;-88
2022/01/26 04:00:08;;;;;;;15.20;9.65;;;3.50;99.90;;;;;;6216609;23;20001;-89
2022/01/26 04:02:35;;;;;;;14.55;10.05;;;3.50;99.90;;;;;;6216371;23;20001;-89
2022/01/26 04:05:04;;;;;;;14.50;9.32;;;3.40;99.90;;;;;;6216223;23;20000;-89
2022/01/26 04:07:30;;;;;;;13.23;9.45;;;3.50;99.90;;;;;;6216470;23;20005;-89
2022/01/26 04:10:04;;;;;;;14.63;10.32;;;3.50;99.90;;;;;;6216422;23;20012;-89
2022/01/26 04:12:31;;;;;;;13.65;9.50;;;3.40;99.90;;;;;;6216290;23;20442;-89
2022/01/26 04:15:03;;;;;;;14.75;9.90;;;3.40;99.90;;;;;;6216291;23;20487;-89
2022/01/26 04:17:29;;;;;;;14.73;9.93;;;3.40;99.90;;;;;;6217608;23;20031;-88
2022/01/26 04:19:57;;;;;;;14.82;10.57;;;3.40;99.90;;;;;;6216189;23;20004;-89
2022/01/26 04:22:31;;;;;;;15.40;9.48;;;3.40;99.90;;;;;;6217683;23;20059;-89
2022/01/26 04:24:58;;;;;;;14.43;10.13;;;3.40;99.90;;;;;;6216440;23;20054;-89
2022/01/26 04:27:46;;;;;;;15.30;9.82;;;3.40;99.90;;;;;;6216299;23;20005;-88
2022/01/26 04:30:12;;;;;;;14.60;9.68;;;3.40;99.90;;;;;;6217501;23;20083;-89
2022/01/26 04:32:37;;;;;;;13.50;9.10;;;3.40;99.90;;;;;;6216528;23;20044;-89
2022/01/26 04:35:03;;;;;;;13.65;9.93;;;3.40;99.90;;;;;;6216027;23;20007;-89
2022/01/26 04:37:48;;;;;;;13.77;9.45;;;3.40;99.90;;;;;;6216018;23;20011;-88
2022/01/26 04:40:16;;;;;;;12.40;8.90;;;3.40;99.90;;;;;;6216137;23;20029;-89
2022/01/26 04:42:51;;;;;;;14.52;9.13;;;3.40;99.90;;;;;;6216125;23;20058;-89
2022/01/26 04:45:17;;;;;;;12.65;8.98;;;3.40;99.90;;;;;;6217519;23;19997;-89
2022/01/26 04:47:42;;;;;;;13.48;8.60;;;3.40;99.90;;;;;;6226694;23;20070;-89
2022/01/26 04:50:10;;;;;;;14.82;9.88;;;3.40;99.90;;;;;;6221042;23;20091;-89
2022/01/26 04:52:37;;;;;;;13.15;8.60;;;3.40;99.90;;;;;;6221012;23;20007;-89
2022/01/26 04:55:03;;;;;;;14.13;9.55;;;3.40;99.90;;;;;;6220994;23;20008;-89
2022/01/26 04:57:29;;;;;;;14.00;8.85;;;3.40;99.90;;;;;;6221203;23;20047;-89
2022/01/26 04:59:55;;;;;;;11.95;8.40;;;3.40;99.90;;;;;;6221031;23;20004;-89
2022/01/26 05:02:20;;;;;;;14.05;9.75;;;3.40;99.90;;;;;;6247782;23;19999;-89
2022/01/26 05:04:46;;;;;;;13.45;9.07;;;3.40;99.90;;;;;;6220895;23;20083;-89
2022/01/26 05:07:12;;;;;;;12.68;9.00;;;3.40;99.90;;;;;;6247576;23;20050;-89
2022/01/26 05:09:39;;;;;;;14.32;9.50;;;3.40;99.90;;;;;;6220956;23;20008;-89
2022/01/26 05:12:05;;;;;;;12.77;8.68;;;3.30;99.90;;;;;;6220919;23;20004;-89
2022/01/26 05:14:31;;;;;;;11.65;8.32;;;3.40;99.90;;;;;;6220867;23;20004;-89
2022/01/26 05:16:56;;;;;;;13.75;9.05;;;3.40;99.90;;;;;;6220632;23;20062;-90
2022/01/26 05:19:22;;;;;;;14.82;9.57;;;3.30;99.90;;;;;;6220941;23;20111;-89
2022/01/26 05:21:49;;;;;;;14.45;9.65;;;3.30;99.90;;;;;;6220843;23;20083;-89
2022/01/26 05:24:14;;;;;;;13.07;9.10;;;3.40;99.90;;;;;;6220863;23;20091;-90
2022/01/26 05:26:40;;;;;;;14.75;9.98;;;3.30;99.90;;;;;;6220640;23;20435;-89
2022/01/26 05:29:07;;;;;;;15.32;9.52;;;3.30;99.90;;;;;;6220603;23;20004;-89
2022/01/26 05:31:33;;;;;;;15.90;10.10;;;3.30;99.90;;;;;;6220632;23;20091;-89
2022/01/26 05:33:59;;;;;;;14.25;9.48;;;3.30;99.90;;;;;;6220588;23;20038;-89
2022/01/26 05:36:25;;;;;;;14.25;9.88;;;3.30;99.90;;;;;;6220546;23;20008;-89
2022/01/26 05:38:50;;;;;;;14.88;9.45;;;3.30;99.90;;;;;;6220540;23;20000;-89
2022/01/26 05:41:16;;;;;;;14.95;9.75;;;3.30;99.90;;;;;;6220481;23;20122;-89
2022/01/26 05:43:43;;;;;;;13.85;9.20;;;3.30;99.90;;;;;;6220447;23;20448;-89
2022/01/26 05:46:18;;;;;;;14.18;9.07;;;3.30;99.90;;;;;;6220757;23;20004;-89
2022/01/26 05:48:45;;;;;;;14.18;9.93;;;3.30;99.90;;;;;;6215334;23;20013;-89
2022/01/26 05:51:12;;;;;;;15.35;9.82;;;3.30;99.90;;;;;;6215626;23;20005;-89
2022/01/26 05:53:39;;;;;;;14.13;9.80;;;3.30;99.90;;;;;;6215382;23;20374;-89
2022/01/26 05:56:06;;;;;;;16.10;10.05;;;3.30;99.90;;;;;;6215387;23;20084;-88
2022/01/26 05:58:31;;;;;;;15.02;9.98;;;3.30;99.90;;;;;;6215074;23;20092;-89
2022/01/26 06:01:00;;;;;;;18.83;10.05;;;3.30;99.90;;;;;;6215220;23;20036;-89
2022/01/26 06:03:27;;;;;;;16.50;10.50;;;3.30;99.90;;;;;;6215214;23;20001;-89
2022/01/26 06:05:54;;;;;;;16.08;10.15;;;3.30;99.90;;;;;;6216698;23;20005;-89
2022/01/26 06:08:21;;;;;;;16.58;10.10;;;3.30;99.90;;;;;;6215409;23;20047;-89
2022/01/26 06:10:51;;;;;;;18.30;11.18;;;3.30;99.90;;;;;;6216820;23;20325;-89
2022/01/26 06:13:17;;;;;;;15.77;10.52;;;3.30;99.90;;;;;;6215245;23;20000;-89
2022/01/26 06:15:44;;;;;;;17.33;10.23;;;3.30;99.90;;;;;;6215180;23;20031;-89
2022/01/26 06:18:10;;;;;;;16.95;10.02;;;3.30;99.90;;;;;;6215196;23;20008;-89
2022/01/26 06:20:37;;;;;;;16.88;10.75;;;3.30;99.90;;;;;;6215256;23;20421;-90
2022/01/26 06:23:03;;;;;;;16.50;10.77;;;3.30;99.90;;;;;;6216694;23;20433;-89
2022/01/26 06:25:29;;;;;;;16.00;11.23;;;3.30;99.90;;;;;;6215194;23;20012;-89
2022/01/26 06:27:58;;;;;;;17.40;10.40;;;3.30;99.90;;;;;;6215228;23;20358;-89
2022/01/26 06:30:24;;;;;;;17.35;10.90;;;3.30;99.90;;;;;;6215080;23;20043;-89
2022/01/26 06:32:50;;;;;;;15.00;10.05;;;3.30;99.90;;;;;;6215131;23;20441;-89
2022/01/26 06:35:16;;;;;;;15.00;9.93;;;3.30;99.90;;;;;;6215774;23;20009;-89
2022/01/26 06:37:44;;;;;;;15.38;10.45;;;3.30;99.90;;;;;;6214989;23;20015;-89
2022/01/26 06:40:10;;;;;;;15.85;10.77;;;3.30;99.90;;;;;;6216072;23;20000;-89
2022/01/26 06:42:49;;;;;;;17.60;10.63;;;3.30;99.90;;;;;;6215126;23;20095;-89
2022/01/26 06:45:18;;;;;;;15.57;10.02;;;3.30;99.90;;;;;;6215718;23;20016;-88
2022/01/26 06:50:25;;;;;;;15.02;10.05;;;3.30;99.90;;;;;;6226553;23;20008;-89
2022/01/26 06:52:52;;;;;;;16.35;10.68;;;3.30;99.90;;;;;;6215034;23;20012;-89
2022/01/26 06:55:19;;;;;;;16.05;10.80;;;3.20;99.90;;;;;;6214759;23;20031;-89
2022/01/26 06:57:45;;;;;;;16.55;10.00;;;3.20;99.90;;;;;;6214695;23;20012;-89
2022/01/26 07:00:12;;;;;;;16.38;10.77;;;3.20;99.90;;;;;;6215032;23;20007;-89
2022/01/26 07:02:39;;;;;;;15.52;9.88;;;3.20;99.90;;;;;;6216345;23;20008;-89
2022/01/26 07:05:12;;;;;;;15.52;9.90;;;3.30;99.90;;;;;;6214931;23;20001;-89
2022/01/26 07:07:38;;;;;;;15.45;10.75;;;3.20;99.90;;;;;;6214970;23;20028;-90
2022/01/26 07:10:05;;;;;;;18.00;10.63;;;3.20;99.90;;;;;;6214747;23;20080;-90
2022/01/26 07:12:31;;;;;;;18.38;10.32;;;3.20;99.90;;;;;;6214704;23;20040;-89
2022/01/26 07:23:09;;;;;;;;;;;3.20;99.90;;;;;;6217281;23;20468;-90
2022/01/26 07:25:36;;;;;;;16.67;10.55;;;3.20;99.90;;;;;;6215774;23;19899;-89
2022/01/26 07:28:04;;;;;;;15.18;9.98;;;3.20;99.90;;;;;;6214817;23;20004;-89
2022/01/26 07:30:31;;;;;;;17.45;10.30;;;3.20;99.90;;;;;;6214770;23;20004;-90
2022/01/26 07:32:57;;;;;;;16.77;11.05;;;3.20;99.90;;;;;;6214850;23;20032;-90
2022/01/26 07:35:23;;;;;;;17.50;10.75;;;3.20;99.90;;;;;;6215233;23;20015;-90
2022/01/26 07:37:50;;;;;;;18.73;10.95;;;3.20;99.90;;;;;;6214709;23;20058;-89
2022/01/26 07:40:16;;;;;;;16.70;11.32;;;3.20;99.90;;;;;;6214858;23;20004;-90
2022/01/26 07:42:42;;;;;;;18.50;10.88;;;3.20;99.90;;;;;;6214996;23;20031;-90
2022/01/26 07:45:10;;;;;;;16.98;10.75;;;3.20;99.90;;;;;;6215342;23;20016;-90
2022/01/26 07:47:37;;;;;;;17.42;10.80;;;3.20;99.90;;;;;;6223841;23;20456;-88
2022/01/26 07:50:08;;;;;;;17.23;10.82;;;3.20;99.90;;;;;;6219543;23;20031;-88
2022/01/26 07:52:38;;;;;;;19.70;10.88;;;3.20;99.90;;;;;;6220233;23;20424;-88
2022/01/26 07:55:08;;;;;;;16.83;10.38;;;3.20;99.90;;;;;;6219696;23;20008;-88
2022/01/26 07:57:34;;;;;;;18.20;11.00;;;3.20;99.90;;;;;;6219224;23;20027;-88
2022/01/26 07:59:59;;;;;;;17.75;11.02;;;3.20;99.90;;;;;;6219235;23;20034;-88
2022/01/26 08:02:25;;;;;;;16.65;10.70;;;3.20;99.90;;;;;;6219361;23;20000;-88
2022/01/26 08:04:50;;;;;;;16.58;10.73;;;3.20;99.90;;;;;;6219361;23;20027;-88
2022/01/26 08:07:16;;;;;;;17.63;11.07;;;3.20;99.90;;;;;;6219299;23;20474;-88
2022/01/26 08:09:43;;;;;;;18.65;11.38;;;3.20;99.90;;;;;;6219390;23;20043;-88
2022/01/26 08:12:15;;;;;;;17.15;10.85;;;3.20;99.90;;;;;;6219358;23;20425;-89
2022/01/26 08:14:41;;;;;;;16.40;10.40;;;3.20;99.90;;;;;;6246137;23;20001;-88
2022/01/26 08:17:08;;;;;;;19.10;11.15;;;3.20;99.90;;;;;;6219137;23;20031;-88
2022/01/26 08:19:34;;;;;;;18.23;11.27;;;3.20;99.90;;;;;;6219215;23;20058;-88
2022/01/26 08:22:01;;;;;;;17.88;11.27;;;3.20;99.90;;;;;;6219451;23;20436;-88
2022/01/26 08:24:31;;;;;;;18.50;10.60;;;3.20;99.90;;;;;;6221044;23;20055;-88
2022/01/26 08:27:04;;;;;;;17.60;10.80;;;3.20;99.90;;;;;;6221103;23;20004;-87
2022/01/26 08:29:38;;;;;;;17.88;10.63;;;3.20;99.90;;;;;;6221108;23;20345;-88
2022/01/26 08:32:03;;;;;;;12.05;7.78;;;3.20;99.90;;;;;;6221148;23;20090;-88
2022/01/26 08:34:29;;;;;;;16.85;10.30;;;3.20;99.90;;;;;;6221099;23;20031;-89
2022/01/26 08:36:55;;;;;;;18.75;11.05;;;3.20;99.90;;;;;;6220942;23;20318;-88
2022/01/26 08:39:21;;;;;;;17.20;10.65;;;3.20;99.90;;;;;;6221018;23;20010;-88
2022/01/26 08:41:47;;;;;;;16.67;10.85;;;3.20;99.90;;;;;;6248047;23;20411;-88
2022/01/26 08:44:12;;;;;;;18.27;11.45;;;3.20;99.90;;;;;;6221022;23;20028;-88
2022/01/26 08:46:38;;;;;;;17.63;10.80;;;3.20;99.90;;;;;;6220925;23;20436;-88
2022/01/26 08:49:04;;;;;;;17.25;11.05;;;3.20;99.90;;;;;;6215764;23;20012;-88
2022/01/26 08:51:30;;;;;;;16.33;10.38;;;3.20;99.90;;;;;;6215792;23;20007;-87
2022/01/26 08:53:56;;;;;;;17.90;11.15;;;3.20;99.90;;;;;;6215663;23;20032;-88
2022/01/26 08:56:22;;;;;;;17.17;11.10;;;3.20;99.90;;;;;;6215605;23;20013;-88
2022/01/26 08:58:48;;;;;;;18.08;10.93;;;3.20;99.90;;;;;;6215697;23;20326;-88
2022/01/26 09:01:13;;;;;;;18.08;10.77;;;3.20;99.90;;;;;;6215892;23;20031;-88
2022/01/26 09:03:39;;;;;;;17.45;11.18;;;3.20;99.90;;;;;;6217143;23;20001;-88
2022/01/26 09:06:09;;;;;;;18.67;11.48;;;3.20;99.90;;;;;;6215642;23;20310;-88
2022/01/26 09:08:40;;;;;;;19.45;11.00;;;3.20;99.90;;;;;;6215595;23;20027;-88
2022/01/26 09:11:07;;;;;;;17.27;10.40;;;3.20;99.90;;;;;;6215696;23;20032;-88
2022/01/26 09:13:34;;;;;;;15.98;10.32;;;3.20;99.90;;;;;;6215580;23;20004;-87
2022/01/26 09:16:03;;;;;;;19.50;11.75;;;3.20;99.90;;;;;;6215443;23;20441;-87
2022/01/26 09:18:50;;;;;;;19.60;11.63;;;3.20;99.90;;;;;;6215601;23;20054;-87
2022/01/26 09:21:16;;;;;;;20.27;11.90;;;3.20;99.90;;;;;;6215526;23;20004;-88
2022/01/26 09:23:42;;;;;;;19.95;12.05;;;3.20;99.90;;;;;;6215501;23;20008;-88
2022/01/26 09:26:07;;;;;;;16.85;11.43;;;3.20;99.90;;;;;;6215386;23;19997;-87
2022/01/26 09:28:33;;;;;;;18.38;11.27;;;3.20;99.90;;;;;;6215463;23;20009;-87
2022/01/26 09:30:59;;;;;;;17.85;11.40;;;3.30;99.90;;;;;;6215426;23;20001;-88
2022/01/26 09:33:24;;;;;;;20.00;12.20;;;3.20;99.90;;;;;;6215079;23;20040;-87
2022/01/26 09:35:50;;;;;;;18.13;11.90;;;3.30;99.90;;;;;;6215078;23;20000;-87
2022/01/26 09:38:17;;;;;;;19.45;12.27;;;3.30;99.90;;;;;;6215490;23;20008;-87
2022/01/26 09:40:43;;;;;;;19.75;12.25;;;3.30;99.90;;;;;;6215258;23;20414;-87
2022/01/26 09:43:11;;;;;;;20.90;12.57;;;3.30;99.90;;;;;;6215226;23;20005;-87
2022/01/26 09:45:36;;;;;;;20.80;12.68;;;3.30;99.90;;;;;;6215205;23;20341;-87
2022/01/26 09:48:03;;;;;;;19.60;11.63;;;3.30;99.90;;;;;;6214951;23;20095;-87
2022/01/26 09:50:30;;;;;;;20.00;12.75;;;3.30;99.90;;;;;;6215195;23;20091;-87
2022/01/26 09:52:56;;;;;;;19.30;12.60;;;3.30;99.90;;;;;;6216722;23;20000;-87
2022/01/26 09:55:24;;;;;;;23.95;13.90;;;3.30;99.90;;;;;;6215114;23;20009;-87
2022/01/26 09:57:53;;;;;;;21.73;13.20;;;3.30;99.90;;;;;;6214981;23;20008;-87
2022/01/26 10:00:19;;;;;;;20.35;12.80;;;3.30;99.90;;;;;;6215077;23;20001;-86
2022/01/26 10:02:56;;;;;;;21.65;13.27;;;3.30;99.90;;;;;;6215006;23;20008;-86
2022/01/26 10:05:22;;;;;;;22.00;13.05;;;3.30;99.90;;;;;;6214961;23;20376;-87
2022/01/26 10:15:59;;;;;;;21.60;13.43;;;3.30;99.90;;;;;;6216886;23;20430;-85
2022/01/26 10:18:29;;;;;;;25.58;13.57;;;3.30;99.90;;;;;;6214922;23;20083;-84
2022/01/26 10:20:57;;;;;;;22.00;13.32;;;3.30;99.90;;;;;;6215136;23;20007;-85
2022/01/26 10:23:29;;;;;;;26.02;14.77;;;3.30;99.90;;;;;;6214802;23;20083;-85
2022/01/26 10:26:08;;;;;;;22.98;14.18;;;3.30;99.90;;;;;;6216328;23;20374;-85
2022/01/26 10:29:02;;;;;;;22.20;12.73;;;3.30;99.90;;;;;;6214811;23;20005;-84
2022/01/26 10:31:39;;;;;;;23.75;14.40;;;3.30;99.90;;;;;;6214807;23;20441;-84
2022/01/26 10:34:11;;;;;;;23.20;13.48;;;3.30;99.90;;;;;;6214751;23;20476;-84
2022/01/26 10:36:57;;;;;;;25.42;14.18;;;3.40;99.90;;;;;;6216134;23;20011;-84
2022/01/26 10:39:36;;;;;;;25.88;14.98;;;3.30;99.90;;;;;;6214692;23;20384;-84
2022/01/26 10:42:09;;;;;;;25.77;14.52;;;3.40;99.90;;;;;;6214971;23;20007;-84
2022/01/26 10:44:48;;;;;;;22.00;13.55;;;3.40;99.90;;;;;;6214552;23;20465;-84
2022/01/26 10:47:25;;;;;;;26.38;13.48;;;3.40;99.90;;;;;;6219120;23;20007;-84
2022/01/26 10:52:38;;;;;;;23.40;13.30;;;3.40;99.90;;;;;;6199543;23;20099;-85
2022/01/26 10:55:08;;;;;;;25.42;14.25;;;3.40;99.90;;;;;;6219546;23;20011;-84
2022/01/26 10:57:35;;;;;;;22.60;13.57;;;3.40;99.90;;;;;;6219432;23;20522;-85
2022/01/26 11:00:02;;;;;;;21.63;13.60;;;3.40;99.90;;;;;;6219461;23;20031;-84
2022/01/26 11:02:33;;;;;;;23.55;14.20;;;3.40;99.90;;;;;;6219819;23;20031;-84
2022/01/26 11:04:59;;;;;;;20.40;13.80;;;3.40;99.90;;;;;;6219344;23;20075;-84
2022/01/26 11:07:38;;;;;;;21.50;13.45;;;3.40;99.90;;;;;;6219456;23;20091;-84
2022/01/26 11:10:06;;;;;;;21.02;12.95;;;3.40;99.90;;;;;;6219392;23;20012;-84
2022/01/26 11:12:32;;;;;;;22.60;13.48;;;3.40;99.90;;;;;;6246276;23;20000;-84
2022/01/26 11:15:05;;;;;;;23.13;13.63;;;3.40;99.90;;;;;;6219485;23;20053;-84
2022/01/26 11:17:51;;;;;;;21.30;13.07;;;3.40;99.90;;;;;;6219382;23;20391;-85
2022/01/26 11:20:18;;;;;;;21.65;13.48;;;3.40;99.90;;;;;;6218555;23;20000;-85
2022/01/26 11:22:53;;;;;;;21.15;13.07;;;3.40;99.90;;;;;;6219298;23;20062;-84
2022/01/26 11:25:19;;;;;;;22.25;13.75;;;3.40;99.90;;;;;;6220131;23;20324;-84
2022/01/26 11:27:45;;;;;;;19.95;12.70;;;3.40;99.90;;;;;;6219353;23;20341;-84
2022/01/26 11:30:32;;;;;;;20.40;13.75;;;3.40;99.90;;;;;;6219285;23;20054;-84
2022/01/26 11:33:03;;;;;;;23.30;12.88;;;3.40;99.90;;;;;;6219321;23;20012;-84
2022/01/26 11:35:35;;;;;;;22.92;13.38;;;3.40;99.90;;;;;;6219317;23;20007;-84
2022/01/26 11:46:53;;;;;;;23.20;13.88;;;3.40;99.90;;;;;;6246496;23;20078;-86
2022/01/26 11:49:26;;;;;;;24.63;14.38;;;3.40;99.90;;;;;;6219117;23;20012;-86
2022/01/26 11:51:56;;;;;;;25.17;14.35;;;3.40;99.90;;;;;;6246492;23;20007;-86
2022/01/26 11:54:49;;;;;;;24.55;13.95;;;3.40;99.90;;;;;;6219233;23;20004;-86
2022/01/26 11:57:18;;;;;;;25.42;14.00;;;3.40;99.90;;;;;;6219665;23;20058;-86
2022/01/26 11:59:57;;;;;;;24.10;14.13;;;3.40;99.90;;;;;;6221514;23;20004;-86
2022/01/26 12:05:09;;;;;;;22.85;13.27;;;3.40;99.90;;;;;;6257993;23;20004;-86
2022/01/26 12:07:50;;;;;;;26.15;14.23;;;3.40;99.90;;;;;;6221197;23;20001;-86
2022/01/26 12:10:30;;;;;;;27.60;14.80;;;3.40;99.90;;;;;;6248381;23;20049;-86
2022/01/26 12:13:00;;;;;;;26.33;14.57;;;3.40;99.90;;;;;;6247995;23;20011;-86
2022/01/26 12:15:31;;;;;;;27.58;16.05;;;3.40;99.90;;;;;;6221112;23;20115;-86
2022/01/26 12:18:16;;;;;;;26.48;15.07;;;3.40;99.90;;;;;;6247885;23;20029;-86
2022/01/26 12:34:57;;;;;;;27.52;15.68;;;3.40;99.90;;;;;;6248219;23;20039;-86
2022/01/26 12:45:25;;;;;;;29.75;16.60;;;3.40;99.90;;;;;;6247699;23;20135;-86
2022/01/26 12:47:53;;;;;;;28.70;16.00;;;3.40;99.90;;;;;;6220533;23;20449;-86
2022/01/26 12:50:19;;;;;;;28.55;15.90;;;3.40;99.90;;;;;;6247487;23;20000;-86
2022/01/26 12:52:56;;;;;;;30.42;16.90;;;3.40;99.90;;;;;;6220751;23;20090;-86
2022/01/26 12:55:32;;;;;;;32.95;17.58;;;3.40;99.90;;;;;;6220734;23;20432;-86
2022/01/26 12:57:58;;;;;;;30.50;16.98;;;3.40;99.90;;;;;;6220555;23;20012;-86
2022/01/26 13:00:25;;;;;;;31.52;16.52;;;3.40;99.90;;;;;;6220688;23;20031;-86
2022/01/26 13:02:53;;;;;;;33.70;17.50;;;3.40;99.90;;;;;;6247558;23;20002;-86
2022/01/26 13:05:26;;;;;;;34.53;16.92;;;3.40;99.90;;;;;;6247404;23;20032;-86
2022/01/26 13:08:05;;;;;;;32.15;17.23;;;3.40;99.90;;;;;;6220509;23;20054;-86
2022/01/26 13:10:32;;;;;;;34.60;17.73;;;3.40;99.90;;;;;;6220300;23;20008;-86
2022/01/26 13:13:22;;;;;;;36.63;17.45;;;3.40;99.90;;;;;;6220543;23;20455;-86
2022/01/26 13:16:08;;;;;;;34.50;18.05;;;3.40;99.90;;;;;;6220555;23;20111;-86
2022/01/26 13:24:05;;;;;;;35.22;18.98;;;3.30;99.90;;;;;;6248091;23;20004;-86
2022/01/26 13:26:37;;;;;;;34.40;18.98;;;3.40;99.90;;;;;;6244594;23;20008;-86
2022/01/26 13:36:56;;;;;;;39.20;19.92;;;3.40;99.90;;;;;;6257693;23;20008;-85
2022/01/26 13:42:20;;;;;;;36.08;19.02;;;3.30;99.90;;;;;;6247458;23;20489;-85
2022/01/26 13:52:42;;;;;;;32.50;16.77;;;3.30;99.90;;;;;;6246963;23;19938;-85
2022/01/26 14:00:08;;;;;;;36.83;19.95;;;3.00;99.90;;;;;;6247559;23;20007;-86
2022/01/26 14:02:36;;;;;;;39.47;20.50;;;3.00;99.90;;;;;;6195351;23;20007;-85
2022/01/26 14:05:03;;;;;;;38.80;19.17;;;3.00;99.90;;;;;;6247112;23;19999;-85
2022/01/26 14:07:28;;;;;;;40.63;19.35;;;3.00;99.90;;;;;;6219968;23;20008;-85
2022/01/26 14:09:54;;;;;;;35.50;19.30;;;3.10;99.90;;;;;;6220015;23;20376;-85
2022/01/26 14:12:25;;;;;;;37.17;19.55;;;3.10;99.90;;;;;;6219865;23;20015;-85
2022/01/26 14:14:55;;;;;;;40.58;19.10;;;3.20;99.90;;;;;;6219905;23;20008;-85
2022/01/26 14:17:34;;;;;;;34.97;18.50;;;3.20;99.90;;;;;;6219843;23;20008;-86
2022/01/26 14:27:38;;;;;;;42.05;21.67;;;2.60;99.90;;;;;;6257215;23;20054;-85
2022/01/26 15:41:05;;;;;;;31.13;16.50;;;3.00;99.90;;;;;;6246478;23;20337;-85
2022/01/26 15:44:19;;;;;;;32.35;16.35;;;3.00;99.90;;;;;;6219348;23;20000;-84
2022/01/26 15:52:06;;;;;;;30.10;15.98;;;3.00;99.90;;;;;;6246386;23;20384;-84
2022/01/26 15:57:53;;;;;;;30.38;16.23;;;3.00;99.90;;;;;;6245949;23;20015;-84
2022/01/26 16:06:03;;;;;;;30.05;16.25;;;3.00;99.90;;;;;;6246035;23;20008;-84
2022/01/26 16:12:41;;;;;;;31.90;16.50;;;3.00;99.90;;;;;;6219263;23;20086;-84
2022/01/26 16:38:50;;;;;;;34.25;16.50;;;3.00;99.90;;;;;;6256389;23;20012;-84
2022/01/26 18:06:45;;;;;;;29.33;14.63;;;3.00;99.90;;;;;;6247299;23;20495;-85
2022/01/26 18:16:09;;;;;;;30.40;15.63;;;3.00;99.90;;;;;;6247265;23;20008;-85
2022/01/26 18:26:47;;;;;;;30.95;16.00;;;3.00;99.90;;;;;;6247185;23;20038;-84
2022/01/26 18:32:12;;;;;;;30.13;15.02;;;3.00;99.90;;;;;;6246787;23;20011;-84
2022/01/26 18:51:04;;;;;;;32.25;15.50;;;3.00;99.90;;;;;;6246856;23;20019;-84
2022/01/26 18:53:31;;;;;;;31.67;15.73;;;3.00;99.90;;;;;;6219470;23;20322;-85
2022/01/26 18:55:56;;;;;;;29.55;14.93;;;3.00;99.90;;;;;;6219647;23;20039;-85
2022/01/26 18:58:22;;;;;;;33.38;16.63;;;3.00;99.90;;;;;;6219363;23;20449;-84
2022/01/26 19:00:48;;;;;;;32.83;16.30;;;3.00;99.90;;;;;;6219462;23;20333;-84
2022/01/26 19:03:14;;;;;;;32.03;16.05;;;3.00;99.90;;;;;;6219584;23;20459;-84
2022/01/26 19:05:40;;;;;;;34.13;16.65;;;3.00;99.90;;;;;;6219328;23;20004;-85
2022/01/26 19:08:06;;;;;;;33.28;16.48;;;3.00;99.90;;;;;;6219433;23;20000;-84
2022/01/26 19:10:32;;;;;;;39.90;18.02;;;3.00;99.90;;;;;;6219443;23;20008;-85
2022/01/26 19:12:58;;;;;;;30.45;16.95;;;3.00;99.90;;;;;;6219266;23;20000;-85
2022/01/26 19:15:28;;;;;;;38.38;17.70;;;3.00;99.90;;;;;;6219426;23;20004;-85
2022/01/26 19:18:01;;;;;;;38.00;17.70;;;3.00;99.90;;;;;;6219275;23;20471;-85
2022/01/26 19:20:55;;;;;;;39.08;17.45;;;3.00;99.90;;;;;;6219394;23;19996;-84
2022/01/26 19:26:00;;;;;;;37.83;18.80;;;3.00;99.90;;;;;;6246654;23;19931;-85
2022/01/26 19:28:31;;;;;;;40.15;18.95;;;3.00;99.90;;;;;;6219330;23;20441;-85
2022/01/26 19:52:25;;;;;;;38.50;18.95;;;3.00;99.90;;;;;;6246129;23;20455;-85
2022/01/26 19:54:54;;;;;;;39.92;19.75;;;3.00;99.90;;;;;;6219135;23;20008;-85
2022/01/26 19:57:20;;;;;;;36.35;18.00;;;3.00;99.90;;;;;;6218990;23;20078;-84
2022/01/26 19:59:46;;;;;;;42.55;19.55;;;3.00;99.90;;;;;;6219246;23;20429;-85